createdAt,value
2024-05-09T00:00:10.447Z,20.19
2024-05-09T00:01:14.265Z,20.18
2024-05-09T00:02:15.743Z,20.18
2024-05-09T00:03:17.246Z,20.18
2024-05-09T00:04:19.700Z,20.18
2024-05-09T00:05:21.231Z,20.18
2024-05-09T00:06:22.769Z,20.17
2024-05-09T00:07:24.218Z,20.18
2024-05-09T00:08:25.741Z,20.19
2024-05-09T00:09:27.215Z,20.19
2024-05-09T00:10:35.575Z,20.18
2024-05-09T00:11:39.570Z,20.17
2024-05-09T00:12:41.061Z,20.18
2024-05-09T00:13:42.556Z,20.18
2024-05-09T00:14:44.061Z,20.18
2024-05-09T00:15:45.510Z,20.18
2024-05-09T00:16:48.508Z,20.18
2024-05-09T00:17:50.279Z,20.16
2024-05-09T00:18:51.968Z,20.17
2024-05-09T00:19:53.566Z,20.17
2024-05-09T00:20:55.109Z,20.18
2024-05-09T00:21:56.556Z,20.17
2024-05-09T00:22:58.094Z,20.16
2024-05-09T00:23:59.557Z,20.16
2024-05-09T00:25:01.030Z,20.17
2024-05-09T00:26:02.513Z,20.17
2024-05-09T00:27:04.378Z,20.16
2024-05-09T00:28:06.140Z,20.16
2024-05-09T00:29:07.635Z,20.16
2024-05-09T00:30:14.352Z,20.16
2024-05-09T00:31:19.072Z,20.16
2024-05-09T00:32:20.628Z,20.16
2024-05-09T00:33:22.431Z,20.16
2024-05-09T00:34:24.116Z,20.16
2024-05-09T00:35:25.700Z,20.17
2024-05-09T00:36:27.210Z,20.16
2024-05-09T00:37:28.664Z,20.15
2024-05-09T00:38:30.234Z,20.15
2024-05-09T00:39:31.798Z,20.14
2024-05-09T00:40:39.564Z,20.14
2024-05-09T00:41:43.603Z,20.14
2024-05-09T00:42:46.635Z,20.14
2024-05-09T00:43:48.091Z,20.14
2024-05-09T00:44:49.578Z,20.13
2024-05-09T00:45:51.107Z,20.14
2024-05-09T00:46:55.314Z,20.14
2024-05-09T00:47:57.556Z,20.14
2024-05-09T00:48:59.236Z,20.15
2024-05-09T00:50:01.788Z,20.15
2024-05-09T00:51:03.459Z,20.14
2024-05-09T00:52:06.315Z,20.15
2024-05-09T00:53:09.732Z,20.15
2024-05-09T00:54:11.265Z,20.14
2024-05-09T00:55:13.238Z,20.14
2024-05-09T00:56:14.860Z,20.14
2024-05-09T00:57:17.071Z,20.12
2024-05-09T00:58:20.626Z,20.13
2024-05-09T00:59:23.570Z,20.12
2024-05-09T01:00:31.675Z,20.12
2024-05-09T01:01:40.787Z,20.13
2024-05-09T01:02:42.428Z,20.13
2024-05-09T01:03:45.950Z,20.12
2024-05-09T01:04:48.917Z,20.13
2024-05-09T01:05:50.704Z,20.12
2024-05-09T01:06:52.300Z,20.13
2024-05-09T01:07:53.768Z,20.11
2024-05-09T01:08:55.282Z,20.12
2024-05-09T01:09:56.754Z,20.12
2024-05-09T01:10:58.283Z,20.11
2024-05-09T01:11:59.900Z,20.11
2024-05-09T01:13:01.400Z,20.09
2024-05-09T01:14:02.924Z,20.11
2024-05-09T01:15:04.438Z,20.11
2024-05-09T01:16:06.093Z,20.11
2024-05-09T01:17:07.790Z,20.11
2024-05-09T01:18:13.676Z,20.10
2024-05-09T01:19:20.565Z,20.09
2024-05-09T01:20:31.808Z,20.11
2024-05-09T01:21:41.628Z,20.11
2024-05-09T01:22:44.376Z,20.09
2024-05-09T01:23:45.927Z,20.09
2024-05-09T01:24:47.407Z,20.09
2024-05-09T01:25:48.944Z,20.11
2024-05-09T01:26:50.441Z,20.09
2024-05-09T01:27:51.878Z,20.11
2024-05-09T01:28:53.365Z,20.09
2024-05-09T01:29:54.822Z,20.09
2024-05-09T01:30:56.280Z,20.08
2024-05-09T01:31:59.835Z,20.07
2024-05-09T01:33:01.843Z,20.10
2024-05-09T01:34:03.567Z,20.08
2024-05-09T01:35:05.308Z,20.09
2024-05-09T01:36:06.855Z,20.09
2024-05-09T01:37:08.414Z,20.08
2024-05-09T01:38:12.758Z,20.08
2024-05-09T01:39:14.363Z,20.08
2024-05-09T01:40:21.955Z,20.08
2024-05-09T01:41:26.485Z,20.09
2024-05-09T01:42:28.027Z,20.08
2024-05-09T01:43:29.475Z,20.09
2024-05-09T01:44:31.036Z,20.07
2024-05-09T01:45:32.499Z,20.08
2024-05-09T01:46:33.971Z,20.07
2024-05-09T01:47:35.726Z,20.06
2024-05-09T01:48:37.369Z,20.08
2024-05-09T01:49:39.952Z,20.08
2024-05-09T01:50:43.092Z,20.07
2024-05-09T01:51:45.055Z,20.06
2024-05-09T01:52:46.525Z,20.07
2024-05-09T01:53:48.202Z,20.06
2024-05-09T01:54:49.644Z,20.08
2024-05-09T01:55:51.128Z,20.07
2024-05-09T01:56:52.641Z,20.07
2024-05-09T01:57:54.101Z,20.09
2024-05-09T01:58:55.610Z,20.08
2024-05-09T01:59:57.121Z,20.07
2024-05-09T02:00:58.611Z,20.06
2024-05-09T02:02:00.255Z,20.06
2024-05-09T02:03:02.019Z,20.06
2024-05-09T02:04:03.823Z,20.04
2024-05-09T02:05:05.904Z,20.06
2024-05-09T02:06:07.630Z,20.05
2024-05-09T02:07:09.151Z,20.05
2024-05-09T02:08:18.286Z,20.05
2024-05-09T02:09:20.056Z,20.05
2024-05-09T02:10:26.487Z,20.05
2024-05-09T02:11:40.164Z,20.05
2024-05-09T02:12:41.664Z,20.06
2024-05-09T02:13:43.150Z,20.05
2024-05-09T02:14:44.591Z,20.05
2024-05-09T02:15:46.053Z,20.05
2024-05-09T02:16:47.817Z,20.06
2024-05-09T02:17:49.392Z,20.06
2024-05-09T02:18:51.479Z,20.07
2024-05-09T02:19:53.074Z,20.06
2024-05-09T02:20:54.587Z,20.05
2024-05-09T02:21:56.064Z,20.06
2024-05-09T02:22:57.816Z,20.06
2024-05-09T02:23:59.270Z,20.05
2024-05-09T02:25:00.705Z,20.04
2024-05-09T02:26:02.204Z,20.04
2024-05-09T02:27:03.752Z,20.04
2024-05-09T02:28:05.473Z,20.04
2024-05-09T02:29:06.987Z,20.04
2024-05-09T02:30:18.497Z,20.03
2024-05-09T02:31:27.365Z,20.03
2024-05-09T02:32:29.138Z,20.03
2024-05-09T02:33:31.084Z,20.04
2024-05-09T02:34:32.861Z,20.05
2024-05-09T02:35:34.445Z,20.04
2024-05-09T02:36:36.009Z,20.05
2024-05-09T02:37:37.459Z,20.03
2024-05-09T02:38:39.231Z,20.03
2024-05-09T02:39:40.683Z,20.02
2024-05-09T02:40:42.115Z,20.01
2024-05-09T02:41:43.565Z,20.01
2024-05-09T02:42:45.032Z,20.02
2024-05-09T02:43:46.524Z,20.02
2024-05-09T02:44:48.008Z,20.02
2024-05-09T02:45:49.448Z,20.00
2024-05-09T02:46:50.939Z,20.02
2024-05-09T02:47:52.732Z,20.02
2024-05-09T02:48:54.455Z,20.02
2024-05-09T02:49:55.982Z,20.02
2024-05-09T02:50:57.477Z,20.02
2024-05-09T02:51:58.943Z,20.01
2024-05-09T02:53:00.390Z,20.01
2024-05-09T02:54:01.884Z,20.01
2024-05-09T02:55:03.371Z,20.02
2024-05-09T02:56:05.010Z,20.01
2024-05-09T02:57:06.562Z,20.00
2024-05-09T02:58:08.246Z,20.00
2024-05-09T02:59:09.717Z,20.00
2024-05-09T03:00:18.496Z,19.99
2024-05-09T03:01:24.119Z,19.99
2024-05-09T03:02:27.083Z,19.99
2024-05-09T03:03:28.849Z,19.99
2024-05-09T03:04:30.486Z,19.99
2024-05-09T03:05:32.230Z,19.99
2024-05-09T03:06:33.843Z,20.01
2024-05-09T03:07:35.306Z,20.00
2024-05-09T03:08:36.784Z,20.00
2024-05-09T03:09:38.291Z,20.00
2024-05-09T03:10:40.002Z,20.01
2024-05-09T03:11:41.612Z,20.00
2024-05-09T03:12:43.160Z,20.00
2024-05-09T03:13:44.639Z,19.99
2024-05-09T03:14:46.112Z,19.99
2024-05-09T03:15:47.596Z,19.99
2024-05-09T03:16:49.107Z,19.99
2024-05-09T03:17:50.750Z,19.99
2024-05-09T03:18:52.479Z,20.00
2024-05-09T03:19:54.088Z,19.99
2024-05-09T03:20:55.587Z,19.99
2024-05-09T03:21:57.033Z,19.99
2024-05-09T03:22:58.512Z,19.99
2024-05-09T03:23:59.973Z,19.99
2024-05-09T03:25:01.412Z,19.99
2024-05-09T03:26:02.870Z,19.99
2024-05-09T03:27:04.370Z,19.98
2024-05-09T03:28:06.067Z,19.99
2024-05-09T03:29:07.606Z,19.99
2024-05-09T03:30:09.997Z,19.98
2024-05-09T03:31:11.703Z,19.98
2024-05-09T03:32:13.259Z,19.97
2024-05-09T03:33:18.059Z,19.98
2024-05-09T03:34:21.051Z,19.98
2024-05-09T03:35:22.661Z,19.99
2024-05-09T03:36:24.209Z,19.98
2024-05-09T03:37:25.657Z,19.98
2024-05-09T03:38:27.135Z,19.99
2024-05-09T03:39:28.609Z,19.99
2024-05-09T03:40:31.121Z,19.97
2024-05-09T03:41:32.982Z,19.97
2024-05-09T03:42:40.699Z,19.96
2024-05-09T03:43:43.767Z,19.97
2024-05-09T03:44:45.290Z,19.97
2024-05-09T03:45:47.494Z,19.96
2024-05-09T03:46:48.979Z,19.96
2024-05-09T03:47:50.635Z,19.96
2024-05-09T03:48:52.282Z,19.96
2024-05-09T03:49:53.786Z,19.96
2024-05-09T03:50:55.378Z,19.96
2024-05-09T03:51:56.896Z,19.95
2024-05-09T03:52:58.365Z,19.96
2024-05-09T03:54:00.839Z,19.96
2024-05-09T03:55:02.269Z,19.95
2024-05-09T03:56:07.043Z,19.95
2024-05-09T03:57:08.555Z,19.95
2024-05-09T03:58:10.041Z,19.93
2024-05-09T03:59:11.573Z,19.93
2024-05-09T04:00:18.254Z,19.94
2024-05-09T04:01:30.056Z,19.93
2024-05-09T04:02:31.703Z,19.95
2024-05-09T04:03:33.915Z,19.95
2024-05-09T04:04:35.508Z,19.95
2024-05-09T04:05:38.114Z,19.95
2024-05-09T04:06:39.782Z,19.95
2024-05-09T04:07:44.173Z,19.93
2024-05-09T04:08:45.658Z,19.94
2024-05-09T04:09:47.093Z,19.94
2024-05-09T04:10:48.594Z,19.94
2024-05-09T04:11:50.169Z,19.94
2024-05-09T04:12:53.258Z,19.93
2024-05-09T04:13:54.823Z,19.92
2024-05-09T04:14:56.331Z,19.91
2024-05-09T04:15:57.771Z,19.91
2024-05-09T04:16:59.432Z,19.89
2024-05-09T04:18:01.920Z,19.92
2024-05-09T04:19:04.096Z,19.92
2024-05-09T04:20:08.346Z,19.92
2024-05-09T04:21:10.135Z,19.92
2024-05-09T04:22:11.795Z,19.92
2024-05-09T04:23:14.577Z,19.92
2024-05-09T04:24:16.326Z,19.92
2024-05-09T04:25:17.768Z,19.92
2024-05-09T04:26:19.303Z,19.91
2024-05-09T04:27:20.785Z,19.91
2024-05-09T04:28:23.812Z,19.91
2024-05-09T04:29:25.378Z,19.89
2024-05-09T04:30:36.055Z,19.90
2024-05-09T04:31:40.593Z,19.90
2024-05-09T04:32:42.324Z,19.90
2024-05-09T04:33:44.138Z,19.91
2024-05-09T04:34:45.713Z,19.88
2024-05-09T04:35:49.353Z,19.89
2024-05-09T04:36:50.793Z,19.87
2024-05-09T04:37:52.286Z,19.87
2024-05-09T04:38:53.729Z,19.88
2024-05-09T04:39:55.158Z,19.88
2024-05-09T04:40:56.652Z,19.89
2024-05-09T04:41:58.128Z,19.90
2024-05-09T04:42:59.593Z,19.87
2024-05-09T04:44:01.088Z,19.87
2024-05-09T04:45:02.581Z,19.87
2024-05-09T04:46:04.046Z,19.86
2024-05-09T04:47:05.550Z,19.88
2024-05-09T04:48:07.462Z,19.88
2024-05-09T04:49:09.139Z,19.88
2024-05-09T04:50:14.534Z,19.89
2024-05-09T04:51:19.142Z,19.87
2024-05-09T04:52:20.579Z,19.89
2024-05-09T04:53:22.090Z,19.88
2024-05-09T04:54:33.530Z,19.87
2024-05-09T04:55:37.596Z,19.86
2024-05-09T04:56:39.135Z,19.85
2024-05-09T04:57:40.965Z,19.86
2024-05-09T04:58:42.408Z,19.87
2024-05-09T04:59:43.861Z,19.87
2024-05-09T05:00:45.447Z,19.86
2024-05-09T05:01:47.098Z,19.87
2024-05-09T05:02:48.748Z,19.87
2024-05-09T05:03:50.372Z,19.88
2024-05-09T05:04:52.143Z,19.87
2024-05-09T05:05:53.893Z,19.87
2024-05-09T05:06:56.004Z,19.88
2024-05-09T05:07:58.186Z,19.88
2024-05-09T05:08:59.672Z,19.87
2024-05-09T05:10:01.146Z,19.87
2024-05-09T05:11:02.695Z,19.87
2024-05-09T05:12:24.352Z,19.85
2024-05-09T05:13:30.423Z,19.85
2024-05-09T05:14:31.924Z,19.86
2024-05-09T05:15:33.620Z,19.86
2024-05-09T05:16:35.078Z,19.86
2024-05-09T05:17:36.744Z,19.86
2024-05-09T05:18:38.421Z,19.84
2024-05-09T05:19:39.982Z,19.84
2024-05-09T05:20:41.713Z,19.84
2024-05-09T05:21:43.177Z,19.85
2024-05-09T05:22:44.669Z,19.86
2024-05-09T05:23:46.242Z,19.86
2024-05-09T05:24:47.726Z,19.85
2024-05-09T05:25:49.593Z,19.85
2024-05-09T05:26:51.298Z,19.86
2024-05-09T05:27:52.836Z,19.86
2024-05-09T05:28:54.334Z,19.85
2024-05-09T05:29:55.816Z,19.85
2024-05-09T05:30:57.352Z,19.84
2024-05-09T05:31:58.936Z,19.84
2024-05-09T05:33:00.632Z,19.85
2024-05-09T05:34:02.507Z,19.84
2024-05-09T05:35:04.951Z,19.84
2024-05-09T05:36:06.895Z,19.83
2024-05-09T05:37:08.392Z,19.84
2024-05-09T05:38:10.155Z,19.84
2024-05-09T05:39:11.695Z,19.84
2024-05-09T05:40:20.683Z,19.84
2024-05-09T05:41:26.522Z,19.84
2024-05-09T05:42:27.989Z,19.83
2024-05-09T05:43:29.670Z,19.83
2024-05-09T05:44:31.221Z,19.82
2024-05-09T05:45:32.807Z,19.83
2024-05-09T05:46:34.252Z,19.84
2024-05-09T05:47:36.810Z,19.83
2024-05-09T05:48:38.561Z,19.83
2024-05-09T05:49:40.136Z,19.84
2024-05-09T05:50:42.302Z,19.83
2024-05-09T05:51:43.797Z,19.82
2024-05-09T05:52:45.273Z,19.81
2024-05-09T05:53:46.776Z,19.83
2024-05-09T05:54:48.582Z,19.83
2024-05-09T05:55:50.072Z,19.83
2024-05-09T05:56:51.576Z,19.82
2024-05-09T05:57:53.022Z,19.82
2024-05-09T05:58:54.539Z,19.83
2024-05-09T05:59:56.017Z,19.84
2024-05-09T06:00:57.488Z,19.81
2024-05-09T06:01:58.991Z,19.79
2024-05-09T06:03:00.532Z,19.80
2024-05-09T06:04:02.116Z,19.78
2024-05-09T06:05:03.702Z,19.80
2024-05-09T06:06:05.423Z,19.80
2024-05-09T06:07:07.005Z,19.80
2024-05-09T06:08:08.775Z,19.82
2024-05-09T06:09:10.640Z,19.82
2024-05-09T06:10:17.595Z,19.82
2024-05-09T06:11:23.365Z,19.83
2024-05-09T06:12:25.039Z,19.84
2024-05-09T06:13:26.623Z,19.82
2024-05-09T06:14:28.158Z,19.82
2024-05-09T06:15:29.678Z,19.82
2024-05-09T06:16:31.467Z,19.80
2024-05-09T06:17:33.021Z,19.81
2024-05-09T06:18:34.826Z,19.81
2024-05-09T06:19:36.604Z,19.80
2024-05-09T06:20:39.743Z,19.80
2024-05-09T06:21:41.422Z,19.79
2024-05-09T06:22:42.850Z,19.79
2024-05-09T06:23:47.594Z,19.79
2024-05-09T06:24:49.176Z,19.80
2024-05-09T06:25:50.688Z,19.80
2024-05-09T06:26:52.176Z,19.80
2024-05-09T06:27:53.706Z,19.80
2024-05-09T06:28:55.189Z,19.79
2024-05-09T06:29:56.697Z,19.80
2024-05-09T06:30:58.140Z,19.79
2024-05-09T06:32:00.240Z,19.79
2024-05-09T06:33:02.041Z,19.80
2024-05-09T06:34:04.404Z,19.79
2024-05-09T06:35:06.054Z,19.79
2024-05-09T06:36:07.906Z,19.79
2024-05-09T06:37:09.351Z,19.79
2024-05-09T06:38:11.289Z,19.79
2024-05-09T06:39:13.104Z,19.78
2024-05-09T06:40:17.587Z,19.77
2024-05-09T06:41:22.677Z,19.78
2024-05-09T06:42:24.165Z,19.79
2024-05-09T06:43:25.598Z,19.79
2024-05-09T06:44:27.095Z,19.78
2024-05-09T06:45:28.697Z,19.77
2024-05-09T06:46:30.222Z,19.78
2024-05-09T06:47:31.786Z,19.77
2024-05-09T06:48:33.432Z,19.78
2024-05-09T06:49:35.101Z,19.78
2024-05-09T06:50:38.502Z,19.78
2024-05-09T06:51:41.243Z,19.78
2024-05-09T06:52:46.340Z,19.77
2024-05-09T06:53:47.889Z,19.78
2024-05-09T06:54:49.348Z,19.78
2024-05-09T06:55:50.843Z,19.77
2024-05-09T06:56:52.305Z,19.76
2024-05-09T06:57:53.760Z,19.77
2024-05-09T06:58:55.239Z,19.77
2024-05-09T06:59:59.766Z,19.77
2024-05-09T07:01:01.251Z,19.77
2024-05-09T07:02:04.542Z,19.77
2024-05-09T07:03:10.321Z,19.77
2024-05-09T07:04:12.593Z,19.77
2024-05-09T07:05:14.387Z,19.77
2024-05-09T07:06:16.066Z,19.78
2024-05-09T07:07:17.576Z,19.78
2024-05-09T07:08:19.527Z,19.78
2024-05-09T07:09:21.136Z,19.78
2024-05-09T07:10:28.899Z,19.77
2024-05-09T07:11:35.602Z,19.77
2024-05-09T07:12:37.202Z,19.77
2024-05-09T07:13:38.645Z,19.78
2024-05-09T07:14:40.170Z,19.77
2024-05-09T07:15:42.054Z,19.78
2024-05-09T07:16:43.611Z,19.78
2024-05-09T07:17:45.206Z,19.78
2024-05-09T07:18:49.728Z,19.78
2024-05-09T07:19:51.433Z,19.78
2024-05-09T07:20:52.993Z,19.78
2024-05-09T07:21:54.474Z,19.78
2024-05-09T07:22:55.958Z,19.78
2024-05-09T07:23:57.441Z,19.77
2024-05-09T07:24:58.955Z,19.78
2024-05-09T07:26:00.522Z,19.78
2024-05-09T07:27:02.002Z,19.78
2024-05-09T07:28:03.767Z,19.78
2024-05-09T07:29:05.262Z,19.78
2024-05-09T07:30:07.364Z,19.79
2024-05-09T07:31:09.592Z,19.77
2024-05-09T07:32:11.135Z,19.78
2024-05-09T07:33:16.882Z,19.78
2024-05-09T07:34:18.668Z,19.76
2024-05-09T07:35:20.383Z,19.78
2024-05-09T07:36:21.888Z,19.77
2024-05-09T07:37:23.357Z,19.78
2024-05-09T07:38:24.883Z,19.78
2024-05-09T07:39:26.354Z,19.82
2024-05-09T07:40:33.379Z,19.84
2024-05-09T07:41:38.028Z,19.86
2024-05-09T07:42:39.499Z,19.88
2024-05-09T07:43:40.943Z,19.85
2024-05-09T07:44:42.459Z,19.86
2024-05-09T07:45:51.813Z,19.86
2024-05-09T07:48:14.000Z,19.87
2024-05-09T07:53:34.609Z,19.87
2024-05-09T07:54:08.579Z,19.87
2024-05-09T07:55:10.488Z,19.88
2024-05-09T07:56:12.756Z,19.87
2024-05-09T07:57:14.696Z,19.89
2024-05-09T07:58:16.337Z,19.87
2024-05-09T07:59:17.793Z,19.89
2024-05-09T08:00:26.767Z,19.90
2024-05-09T08:01:31.141Z,19.89
2024-05-09T08:02:32.865Z,19.89
2024-05-09T08:03:34.718Z,19.90
2024-05-09T08:04:36.482Z,19.91
2024-05-09T08:05:38.390Z,19.90
2024-05-09T08:06:39.906Z,19.90
2024-05-09T08:07:41.393Z,19.90
2024-05-09T08:08:42.859Z,19.92
2024-05-09T08:09:45.466Z,19.91
2024-05-09T08:10:47.074Z,19.92
2024-05-09T08:11:52.824Z,19.91
2024-05-09T08:12:54.373Z,19.91
2024-05-09T08:13:55.837Z,19.92
2024-05-09T08:14:57.299Z,19.91
2024-05-09T08:15:58.943Z,19.93
2024-05-09T08:17:00.502Z,19.92
2024-05-09T08:18:02.239Z,19.92
2024-05-09T08:19:03.925Z,19.93
2024-05-09T08:20:05.821Z,19.91
2024-05-09T08:21:07.369Z,19.92
2024-05-09T08:22:09.325Z,19.88
2024-05-09T08:23:11.100Z,19.90
2024-05-09T08:24:12.612Z,19.91
2024-05-09T08:25:14.387Z,19.92
2024-05-09T08:26:16.008Z,19.91
2024-05-09T08:27:17.447Z,19.92
2024-05-09T08:28:19.001Z,19.92
2024-05-09T08:29:20.513Z,19.92
2024-05-09T08:30:29.721Z,19.93
2024-05-09T08:31:38.261Z,19.73
2024-05-09T08:32:40.414Z,19.57
2024-05-09T08:33:47.358Z,19.53
2024-05-09T08:34:49.113Z,19.54
2024-05-09T08:35:50.627Z,19.41
2024-05-09T08:36:52.115Z,19.42
2024-05-09T08:37:53.715Z,19.45
2024-05-09T08:38:55.343Z,19.54
2024-05-09T08:39:57.242Z,19.59
2024-05-09T08:40:59.251Z,19.66
2024-05-09T08:42:01.717Z,19.67
2024-05-09T08:43:06.663Z,19.72
2024-05-09T08:44:09.290Z,19.70
2024-05-09T08:45:12.608Z,19.66
2024-05-09T08:46:14.389Z,19.63
2024-05-09T08:47:16.593Z,19.50
2024-05-09T08:48:19.690Z,19.48
2024-05-09T08:49:21.706Z,19.48
2024-05-09T08:50:32.066Z,19.42
2024-05-09T08:51:39.688Z,19.35
2024-05-09T08:52:41.204Z,19.32
2024-05-09T08:53:42.667Z,19.40
2024-05-09T08:54:45.081Z,19.44
2024-05-09T08:55:46.760Z,19.49
2024-05-09T08:56:48.242Z,19.52
2024-05-09T08:57:49.831Z,19.55
2024-05-09T08:58:56.157Z,19.58
2024-05-09T09:00:02.186Z,19.59
2024-05-09T09:01:04.598Z,19.61
2024-05-09T09:02:06.386Z,19.64
2024-05-09T09:03:09.408Z,19.65
2024-05-09T09:04:12.133Z,19.64
2024-05-09T09:05:17.457Z,19.64
2024-05-09T09:06:21.329Z,19.64
2024-05-09T09:07:22.886Z,19.64
2024-05-09T09:08:25.674Z,19.65
2024-05-09T09:09:27.499Z,19.64
2024-05-09T09:10:32.177Z,19.66
2024-05-09T09:11:34.679Z,19.67
2024-05-09T09:12:36.166Z,19.69
2024-05-09T09:13:38.261Z,19.70
2024-05-09T09:14:39.746Z,19.70
2024-05-09T09:15:47.954Z,19.71
2024-05-09T09:16:51.416Z,19.65
2024-05-09T09:18:01.908Z,19.62
2024-05-09T09:19:06.594Z,19.60
2024-05-09T09:20:14.207Z,19.64
2024-05-09T09:21:18.215Z,19.67
2024-05-09T09:22:19.911Z,19.66
2024-05-09T09:23:21.625Z,19.69
2024-05-09T09:24:23.065Z,19.75
2024-05-09T09:25:24.542Z,19.84
2024-05-09T09:26:25.999Z,19.83
2024-05-09T09:27:27.502Z,19.84
2024-05-09T09:28:29.857Z,19.83
2024-05-09T09:29:31.369Z,19.82
2024-05-09T09:30:37.315Z,19.80
2024-05-09T09:31:39.696Z,19.79
2024-05-09T09:32:41.252Z,19.79
2024-05-09T09:33:43.194Z,19.79
2024-05-09T09:34:44.803Z,19.80
2024-05-09T09:35:46.426Z,19.79
2024-05-09T09:36:48.107Z,19.79
2024-05-09T09:37:50.663Z,19.79
2024-05-09T09:38:52.464Z,19.81
2024-05-09T09:39:54.205Z,19.81
2024-05-09T09:40:55.726Z,19.81
2024-05-09T09:41:58.777Z,19.80
2024-05-09T09:43:01.486Z,19.81
2024-05-09T09:44:03.925Z,19.82
2024-05-09T09:45:05.990Z,19.83
2024-05-09T09:46:10.805Z,19.82
2024-05-09T09:47:15.354Z,19.82
2024-05-09T09:48:17.074Z,19.83
2024-05-09T09:49:19.402Z,19.82
2024-05-09T09:50:27.669Z,19.82
2024-05-09T09:51:35.436Z,19.84
2024-05-09T09:52:37.120Z,19.83
2024-05-09T09:53:39.132Z,19.79
2024-05-09T09:54:41.858Z,19.83
2024-05-09T09:55:43.364Z,19.87
2024-05-09T09:56:47.552Z,19.88
2024-05-09T09:57:49.370Z,19.88
2024-05-09T09:58:51.099Z,19.89
2024-05-09T09:59:52.719Z,19.94
2024-05-09T10:00:54.368Z,19.94
2024-05-09T10:01:56.173Z,19.96
2024-05-09T10:02:57.823Z,19.94
2024-05-09T10:03:59.634Z,19.93
2024-05-09T10:05:01.555Z,19.90
2024-05-09T10:06:04.223Z,19.88
2024-05-09T10:07:08.912Z,19.86
2024-05-09T10:08:10.815Z,19.87
2024-05-09T10:09:15.061Z,19.88
2024-05-09T10:10:32.035Z,19.87
2024-05-09T10:11:41.865Z,19.88
2024-05-09T10:13:13.364Z,19.87
2024-05-09T10:14:19.950Z,19.89
2024-05-09T10:15:21.447Z,19.88
2024-05-09T10:16:23.258Z,19.88
2024-05-09T10:17:24.827Z,19.89
2024-05-09T10:18:35.822Z,19.88
2024-05-09T10:19:37.447Z,19.88
2024-05-09T10:20:39.500Z,19.89
2024-05-09T10:21:46.046Z,19.89
2024-05-09T10:22:50.393Z,19.89
2024-05-09T10:24:04.134Z,19.90
2024-05-09T10:25:06.615Z,19.89
2024-05-09T10:26:08.164Z,19.90
2024-05-09T10:27:09.729Z,19.90
2024-05-09T10:28:12.005Z,19.91
2024-05-09T10:29:14.163Z,19.90
2024-05-09T10:30:29.372Z,19.90
2024-05-09T10:31:38.280Z,19.91
2024-05-09T10:32:40.817Z,19.92
2024-05-09T10:33:46.975Z,19.92
2024-05-09T10:35:00.884Z,19.91
2024-05-09T10:36:12.215Z,19.92
2024-05-09T10:37:13.789Z,19.92
2024-05-09T10:38:15.349Z,19.93
2024-05-09T10:39:19.027Z,19.93
2024-05-09T10:40:26.422Z,19.93
2024-05-09T10:41:32.943Z,19.94
2024-05-09T10:42:34.506Z,19.92
2024-05-09T10:43:38.667Z,19.93
2024-05-09T10:44:40.116Z,19.94
2024-05-09T10:45:41.583Z,19.94
2024-05-09T10:46:43.062Z,19.94
2024-05-09T10:47:44.775Z,19.94
2024-05-09T10:48:47.381Z,19.94
2024-05-09T10:49:49.695Z,19.93
2024-05-09T10:50:51.442Z,19.95
2024-05-09T10:51:53.172Z,19.95
2024-05-09T10:52:54.665Z,19.97
2024-05-09T10:53:58.936Z,19.97
2024-05-09T10:55:01.657Z,19.96
2024-05-09T10:56:04.643Z,19.96
2024-05-09T10:57:06.559Z,19.96
2024-05-09T10:58:16.908Z,19.96
2024-05-09T10:59:18.515Z,19.96
2024-05-09T11:00:27.545Z,19.97
2024-05-09T11:01:35.120Z,19.98
2024-05-09T11:02:36.859Z,19.96
2024-05-09T11:03:39.105Z,19.97
2024-05-09T11:04:41.058Z,19.97
2024-05-09T11:05:42.919Z,19.98
2024-05-09T11:06:45.938Z,19.97
2024-05-09T11:07:47.552Z,19.97
2024-05-09T11:08:49.313Z,19.97
2024-05-09T11:09:50.875Z,19.98
2024-05-09T11:10:53.183Z,19.98
2024-05-09T11:11:54.998Z,19.98
2024-05-09T11:12:56.500Z,19.99
2024-05-09T11:13:57.993Z,19.99
2024-05-09T11:14:59.443Z,19.99
2024-05-09T11:16:01.141Z,19.99
2024-05-09T11:17:06.507Z,19.99
2024-05-09T11:18:08.288Z,19.99
2024-05-09T11:19:13.779Z,19.99
2024-05-09T11:20:22.876Z,19.99
2024-05-09T11:21:30.751Z,20.00
2024-05-09T11:22:32.819Z,20.00
2024-05-09T11:23:34.272Z,20.00
2024-05-09T11:24:35.819Z,20.00
2024-05-09T11:25:37.289Z,20.00
2024-05-09T11:26:38.741Z,20.01
2024-05-09T11:27:42.334Z,20.02
2024-05-09T11:28:44.330Z,20.02
2024-05-09T11:29:47.315Z,20.03
2024-05-09T11:30:49.319Z,20.02
2024-05-09T11:31:50.831Z,20.03
2024-05-09T11:32:52.670Z,20.04
2024-05-09T11:33:54.668Z,20.02
2024-05-09T11:34:56.231Z,20.04
2024-05-09T11:35:57.684Z,20.04
2024-05-09T11:36:59.227Z,20.04
2024-05-09T11:38:00.757Z,20.04
2024-05-09T11:39:02.215Z,20.05
2024-05-09T11:40:06.807Z,20.05
2024-05-09T11:41:08.547Z,20.05
2024-05-09T11:42:09.995Z,20.06
2024-05-09T11:43:11.497Z,20.06
2024-05-09T11:44:13.267Z,20.06
2024-05-09T11:45:14.804Z,20.05
2024-05-09T11:46:16.474Z,20.05
2024-05-09T11:47:18.132Z,20.07
2024-05-09T11:48:20.000Z,20.06
2024-05-09T11:49:23.864Z,20.07
2024-05-09T11:50:32.743Z,20.08
2024-05-09T11:51:37.080Z,20.08
2024-05-09T11:52:38.560Z,20.07
2024-05-09T11:53:40.034Z,20.09
2024-05-09T11:54:41.503Z,20.12
2024-05-09T11:55:42.972Z,20.11
2024-05-09T11:56:44.432Z,20.11
2024-05-09T11:57:45.900Z,20.11
2024-05-09T11:58:47.438Z,20.10
2024-05-09T11:59:49.049Z,20.11
2024-05-09T12:00:50.610Z,20.09
2024-05-09T12:01:52.279Z,20.10
2024-05-09T12:02:56.050Z,20.11
2024-05-09T12:03:57.902Z,20.11
2024-05-09T12:04:59.633Z,20.13
2024-05-09T12:06:01.404Z,20.12
2024-05-09T12:07:03.034Z,20.13
2024-05-09T12:08:04.746Z,20.14
2024-05-09T12:09:06.248Z,20.14
2024-05-09T12:10:13.921Z,20.15
2024-05-09T12:11:18.371Z,20.15
2024-05-09T12:12:19.819Z,20.15
2024-05-09T12:13:21.446Z,20.14
2024-05-09T12:14:23.001Z,20.15
2024-05-09T12:15:24.456Z,20.15
2024-05-09T12:16:26.165Z,20.14
2024-05-09T12:17:28.226Z,20.16
2024-05-09T12:18:29.860Z,20.17
2024-05-09T12:19:32.315Z,20.17
2024-05-09T12:20:37.959Z,20.16
2024-05-09T12:21:41.301Z,20.15
2024-05-09T12:22:42.813Z,20.17
2024-05-09T12:23:44.282Z,20.15
2024-05-09T12:24:45.774Z,20.17
2024-05-09T12:25:47.257Z,20.17
2024-05-09T12:26:48.711Z,20.17
2024-05-09T12:27:50.192Z,20.18
2024-05-09T12:28:51.669Z,20.17
2024-05-09T12:29:53.117Z,20.18
2024-05-09T12:30:54.585Z,20.18
2024-05-09T12:31:56.108Z,20.18
2024-05-09T12:32:57.762Z,20.18
2024-05-09T12:34:00.430Z,20.18
2024-05-09T12:35:01.957Z,20.18
2024-05-09T12:36:03.458Z,20.19
2024-05-09T12:37:04.888Z,20.18
2024-05-09T12:38:06.358Z,20.19
2024-05-09T12:39:09.497Z,20.19
2024-05-09T12:40:18.705Z,20.18
2024-05-09T12:41:28.012Z,20.23
2024-05-09T12:42:31.378Z,20.22
2024-05-09T12:43:34.145Z,20.22
2024-05-09T12:44:35.609Z,20.22
2024-05-09T12:45:37.724Z,20.24
2024-05-09T12:46:39.439Z,20.24
2024-05-09T12:47:40.994Z,20.24
2024-05-09T12:48:42.627Z,20.24
2024-05-09T12:49:44.392Z,20.25
2024-05-09T12:50:46.002Z,20.25
2024-05-09T12:51:47.519Z,20.24
2024-05-09T12:52:49.006Z,20.26
2024-05-09T12:53:50.422Z,20.26
2024-05-09T12:54:51.849Z,20.28
2024-05-09T12:55:57.100Z,20.28
2024-05-09T12:57:03.262Z,20.29
2024-05-09T12:58:04.990Z,20.28
2024-05-09T12:59:06.501Z,20.26
2024-05-09T13:00:14.206Z,20.29
2024-05-09T13:01:21.912Z,20.29
2024-05-09T13:02:23.555Z,20.31
2024-05-09T13:03:25.267Z,20.30
2024-05-09T13:04:27.000Z,20.30
2024-05-09T13:05:29.504Z,20.32
2024-05-09T13:06:31.309Z,20.32
2024-05-09T13:07:32.813Z,20.33
2024-05-09T13:08:34.422Z,20.33
2024-05-09T13:09:35.906Z,20.33
2024-05-09T13:10:37.472Z,20.33
2024-05-09T13:11:39.029Z,20.33
2024-05-09T13:12:40.497Z,20.34
2024-05-09T13:13:41.966Z,20.35
2024-05-09T13:14:43.407Z,20.34
2024-05-09T13:15:44.905Z,20.34
2024-05-09T13:16:46.489Z,20.34
2024-05-09T13:17:48.034Z,20.37
2024-05-09T13:18:49.624Z,20.37
2024-05-09T13:19:51.128Z,20.38
2024-05-09T13:20:52.580Z,20.39
2024-05-09T13:21:54.059Z,20.38
2024-05-09T13:22:55.709Z,20.38
2024-05-09T13:23:58.339Z,20.38
2024-05-09T13:25:00.807Z,20.38
2024-05-09T13:26:02.350Z,20.40
2024-05-09T13:27:03.931Z,20.38
2024-05-09T13:28:05.994Z,20.38
2024-05-09T13:29:07.627Z,20.40
2024-05-09T13:30:14.647Z,20.40
2024-05-09T13:31:22.780Z,20.41